Current Weather



TAF Data Links

METAR Data Links

Latest METAR/TAF Data


Available data for KAUS from the past 2 hours
AUSTIN, TX
Metar
KAUS 200253Z 17006KT 10SM CLR 31/17 A2989 RMK AO2 SLP108 T03060172 53018 $

02:53 UTC

Wind: 170° 6kt

Visibility: 10 SM

Sky:

Temp: 31 deg C / 87.8 deg F

Dewpoint: 17 deg C / 62.6 deg F

Pressure: 29.89 inHg

TAF
KAUS 192334Z 2000/2106 18011KT P6SM FEW250 FM201200 20005KT P6SM SCT010 FM201500 19013KT P6SM FEW250


Available data for KEDC from the past 2 hours
AUSTIN EXEC, TX
Metar
KEDC 200315Z AUTO 17008KT 10SM CLR 31/20 A2991 RMK AO2

03:15 UTC

Wind: 170° 8kt

Visibility: 10 SM

Sky:

Temp: 31 deg C / 87.8 deg F

Dewpoint: 20 deg C / 68 deg F

Pressure: 29.91 inHg



Available data for KRYW from the past 2 hours
LAGO VISTA, TX
Metar
KRYW 200315Z AUTO 17005KT 10SM CLR 32/16 A2994 RMK AO2 T03190157

03:15 UTC

Wind: 170° 5kt

Visibility: 10 SM

Sky:

Temp: 32 deg C / 89.6 deg F

Dewpoint: 16 deg C / 60.8 deg F

Pressure: 29.94 inHg